»·PEaware :: N6506D KPDX-KSLE

N6506D :: KPDX-KSLE

FLIGHT INFORMATION

Flight Status: Arrived
Operator: Privately registered:
United States
More flights under this callsign
Pilot: Aaron T. (8357)
Aircraft: PIPER PA-30 TWIN COMANCHE
(PA30)
More flights by this aircraft type
Origin: KPDX Portland Intl
United States
Destination: KSLE McNary
United States
More flights between these airports :: More routes between these airports
Route: CANBY V23 GNNET
File this flight plan on PilotEdge
Remarks:
Altitude:
(Current/Filed)
6,000ft
Speed:
(Current/Filed)
180kts
Departed: 17-Sep-20 07:09 PM
Arrived: 17-Sep-20 07:46 PM
Distance/Time
Traveled:
44nm/0:37
Distance/Time
To Go:
Arrived

Flight Plot

Page will automatically refresh every two minutes.

Flight plan parsing failed; only flown route is shown


Map Options




Map Legend


Flown Route
Filed Route
Departure Airport
Arrival Airport
Navaid (VOR, NDB)
Fix

Horizontal Profiles

Position Reports

Time Latitude Longitude Heading Altitude Ground
Speed
17-Sep-20 18:55 45.586898 -122.583872 209 33ft 0kts
17-Sep-20 18:56 45.586898 -122.583872 209 33ft 0kts
17-Sep-20 18:57 45.586898 -122.583872 209 33ft 0kts
17-Sep-20 18:59 45.586898 -122.583872 209 33ft 0kts
17-Sep-20 18:59 45.586898 -122.583872 209 33ft 0kts
17-Sep-20 19:00 45.586898 -122.583872 209 33ft 0kts
17-Sep-20 19:01 45.586898 -122.583872 209 33ft 0kts
17-Sep-20 19:02 45.586798 -122.583763 64 33ft 4kts
17-Sep-20 19:03 45.588889 -122.585831 307 33ft 9kts
17-Sep-20 19:04 45.590900 -122.590783 285 33ft 11kts
17-Sep-20 19:05 45.592330 -122.594537 301 33ft 13kts
17-Sep-20 19:06 45.593304 -122.596543 322 33ft 4kts
17-Sep-20 19:07 45.593945 -122.596052 29 33ft 1kts
17-Sep-20 19:08 45.590637 -122.584620 115 147ft 91kts
17-Sep-20 19:09 45.576437 -122.549286 123 1235ft 106kts
17-Sep-20 19:10 45.559167 -122.513916 124 2265ft 110kts
17-Sep-20 19:11 45.535195 -122.491043 192 3154ft 108kts
17-Sep-20 19:12 45.509038 -122.508713 234 4040ft 102kts
17-Sep-20 19:13 45.490141 -122.538477 223 4905ft 99kts
17-Sep-20 19:14 45.468655 -122.565813 224 5537ft 112kts
17-Sep-20 19:15 45.443995 -122.597315 223 5990ft 124kts
17-Sep-20 19:16 45.415804 -122.633070 223 6014ft 146kts
17-Sep-20 19:17 45.384625 -122.672308 223 6015ft 150kts
17-Sep-20 19:18 45.353153 -122.711724 223 5997ft 150kts
17-Sep-20 19:19 45.320327 -122.747305 218 6002ft 147kts
17-Sep-20 19:20 45.287506 -122.781924 214 5998ft 146kts
17-Sep-20 19:21 45.250620 -122.805701 198 6009ft 147kts
17-Sep-20 19:22 45.210040 -122.817019 190 5984ft 149kts
17-Sep-20 19:23 45.168726 -122.824644 191 5967ft 150kts
17-Sep-20 19:24 45.128563 -122.837499 200 5981ft 147kts
17-Sep-20 19:25 45.123090 -122.882860 290 6005ft 135kts
17-Sep-20 19:26 45.134510 -122.935454 285 5991ft 144kts
17-Sep-20 19:27 45.145885 -122.990357 285 5955ft 146kts
17-Sep-20 19:28 45.157551 -123.045885 284 5917ft 147kts
17-Sep-20 19:29 45.168967 -123.100683 286 5951ft 144kts
17-Sep-20 19:30 45.179829 -123.153169 283 5843ft 131kts
17-Sep-20 19:31 45.170268 -123.196435 236 5916ft 115kts
17-Sep-20 19:32 45.150625 -123.236281 235 5450ft 132kts
17-Sep-20 19:33 45.135997 -123.283069 242 4911ft 145kts
17-Sep-20 19:34 45.115126 -123.329781 233 4255ft 135kts
17-Sep-20 19:35 45.083119 -123.321523 107 3261ft 140kts
17-Sep-20 19:36 45.084216 -123.266297 81 3077ft 140kts
17-Sep-20 19:37 45.090007 -123.211949 78 3077ft 141kts
17-Sep-20 19:38 45.091526 -123.158768 96 2951ft 135kts
17-Sep-20 19:39 45.063573 -123.123526 145 2443ft 130kts
17-Sep-20 19:40 45.030397 -123.098605 141 2119ft 136kts
17-Sep-20 19:41 44.998363 -123.071923 145 1898ft 138kts
17-Sep-20 19:42 44.965651 -123.046870 146 1143ft 125kts
17-Sep-20 19:43 44.938578 -123.024510 146 766ft 113kts
17-Sep-20 19:44 44.914737 -123.005552 148 225ft 82kts
17-Sep-20 19:45 44.911356 -123.000745 29 217ft 12kts
17-Sep-20 19:46 44.912092 -123.000201 24 217ft 3kts

Navigation Log

Ident Type
Flight plan parsing failed, navigation log unavailable